Elmer, LA

8:20 AM CDT on October 21, 2019 (GMT -0500)
Elmer Community | | Change Station

Elev 180 ft 31.10 °N, 92.70 °W | Updated 1 second ago

Overcast
Overcast
74.5 °F
Feels Like 71 °F
N
0
Wind Variable Wind from SSE
Gusts 0.0 mph

Today
High -- | Low -- °F
--% Chance of Precip.
Yesterday
High -- | Low -- °F
Precip. -- in
Pressure 29.79 in
Visibility 10.0 miles
Clouds Few 800 ft
Mostly Cloudy 2300 ft
Overcast 10000 ft
Heat Index 71 °F
Dew Point 74 °F
Humidity 98%
Rainfall 0.01 in
Snow Depth Not available.
7:17 AM 6:32 PM
Waning Gibbous, 50% visible
SPECI KAEX 211315Z 31019G32KT 10SM FEW008 BKN023 OVC100 23/22 A2979 RMK AO2 PK WND 30032/1315 LTG DSNT ALQDS RAE1259 PRESRR P0000 T02280222
Pressure 29.79 in
Visibility 10.0 miles
Clouds Few 800 ft
Mostly Cloudy 2300 ft
Overcast 10000 ft
Heat Index 71 °F
Dew Point 74 °F
Humidity 98%
Rainfall 0.01 in
Snow Depth Not available.
7:17 AM 6:32 PM
Waning Gibbous, 50% visible
SPECI KAEX 211315Z 31019G32KT 10SM FEW008 BKN023 OVC100 23/22 A2979 RMK AO2 PK WND 30032/1315 LTG DSNT ALQDS RAE1259 PRESRR P0000 T02280222

Get Severe Weather Alerts

Thanks for signing up!

Be on the lookout for a verification email in your inbox.

You'll start receiving the daily forecast at 6 AM.

×

10-Day Weather Forecast

Almanac

Astronomy

Oct. 21, 2019 Rise Set
Actual Time
Civil Twilight
Nautical Twilight
Astronomical Twilight
Moon
Length of Visible Light
Length of Day
Tomorrow will be .
, % of the Moon is Illuminated

Today's Extremes

State Highs State Lows

Community

WunderPhotos

Category 6

Welcome to Category 6. This is the collective home for Weather Underground's featured writeups by Dr. Jeff Masters (right), Bob Henson (left), Chris Burt, and other regular contributors.

Nearby

Air Quality

  Air Quality AQ Index Pollutant
Not available.

Snow Depth

Station Depth Elevation

Earthquake Activity

City Distance Mag. Time & Date
Minimum magnitude displayed is 2.5.

Coastal Water Temperatures

Place Temperature

Stations

Nearby Weather Stations

Station Location Temp. Windchill Dew Point Humidity Wind Precip. Elev Updated Type
                   

Watches & Warnings

There are currently no watches in effect.